Calmar, Iowa
Current Conditions -  °F | °C
As of 9:55 AM on Thursday 23 Oct 2014 (Local Time) from KDEH Reporting Station
Haze Haze  
Wind Chill: 43°   Ceiling: 2900
Heat Index: 46°   Visibility: 3mi
Dew Point: 46°   Wind: 7mph
Humidity: 100%   Direction: 170°S
Pressure: 30.05"   Gusts: NA
Location:  43.18°N, 91.86°W
Report Text: KDEH 231455Z AUTO 17006KT 3SM BR SCT017 BKN029 OVC036 08/08 A3005 RMK AO2 P0009
Loading
Personal Weather Stations






























Interactive Weather Map
Tropical Storm Tracking
New forecast layout! Learn more

10-Day Weather Forecast

Advertisements
Track Severe Weather on mobile